»·PEaware :: N12559 L45-KBUR

N12559 :: L45-KBUR

FLIGHT INFORMATION

Flight Status: Arrived
Operator: Privately registered:
United States
More flights under this callsign
Pilot: Joshua S. (14624)
Aircraft: CESSNA 172 SKYHAWK
(C172)
More flights by this aircraft type
Origin: L45 Bakersfield Mun
United States
Destination: KBUR Bob Hope-Burbank
United States
More flights between these airports :: More routes between these airports
Route: STIGR2 STIGR GMN V137 JEFFY V165 LHS LYNXX8
File this flight plan on PilotEdge
Remarks:
Altitude:
(Current/Filed)
4,000ft
Speed:
(Current/Filed)
110kts
Departed: 09-Feb-19 11:26 AM
Arrived: 09-Feb-19 12:10 PM
Distance/Time
Traveled:
75nm/0:44
Distance/Time
To Go:
Arrived

Flight Plot

Page will automatically refresh every two minutes.

Flight plan parsing failed; only flown route is shown


Map Options




Map Legend


Flown Route
Filed Route
Departure Airport
Arrival Airport
Navaid (VOR, NDB)
Fix

Horizontal Profiles

Position Reports

Time Latitude Longitude Heading Altitude Ground
Speed
09-Feb-19 11:06 35.330182 -118.996635 174 378ft 0kts
09-Feb-19 11:07 35.330182 -118.996635 174 378ft 0kts
09-Feb-19 11:08 35.330182 -118.996635 174 378ft 0kts
09-Feb-19 11:09 35.330182 -118.996635 174 378ft 0kts
09-Feb-19 11:10 35.330182 -118.996635 174 378ft 0kts
09-Feb-19 11:11 35.324869 -118.996024 0 378ft 0kts
09-Feb-19 11:12 35.330358 -118.996212 339 378ft 0kts
09-Feb-19 11:13 35.330246 -118.997121 72 378ft 0kts
09-Feb-19 11:14 35.330246 -118.997121 72 378ft 0kts
09-Feb-19 11:15 35.330246 -118.997121 72 378ft 0kts
09-Feb-19 11:16 35.330246 -118.997121 72 378ft 0kts
09-Feb-19 11:17 35.330246 -118.997121 72 378ft 0kts
09-Feb-19 11:18 35.330246 -118.997121 72 378ft 0kts
09-Feb-19 11:19 35.330246 -118.997121 72 378ft 0kts
09-Feb-19 11:20 35.330246 -118.997121 72 378ft 0kts
09-Feb-19 11:21 35.330246 -118.997121 72 378ft 0kts
09-Feb-19 11:22 35.330246 -118.997121 72 378ft 0kts
09-Feb-19 11:23 35.330246 -118.997121 72 378ft 0kts
09-Feb-19 11:24 35.329784 -118.996624 171 378ft 24kts
09-Feb-19 11:26 35.313171 -118.996929 221 944ft 62kts
09-Feb-19 11:27 35.317956 -119.016181 304 1572ft 73kts
09-Feb-19 11:28 35.325795 -119.040434 283 2185ft 79kts
09-Feb-19 11:29 35.329479 -119.067462 277 2787ft 81kts
09-Feb-19 11:30 35.331897 -119.094622 275 3383ft 79kts
09-Feb-19 11:31 35.333924 -119.120883 274 3971ft 77kts
09-Feb-19 11:32 35.335813 -119.146396 274 4563ft 73kts
09-Feb-19 11:33 35.337531 -119.170130 274 5143ft 67kts
09-Feb-19 11:34 35.337463 -119.191240 227 5690ft 60kts
09-Feb-19 11:35 35.322697 -119.187315 153 6153ft 57kts
09-Feb-19 11:36 35.307755 -119.177963 152 6560ft 64kts
09-Feb-19 11:37 35.290399 -119.167107 152 6985ft 75kts
09-Feb-19 11:38 35.270910 -119.154858 152 7399ft 81kts
09-Feb-19 11:39 35.207288 -119.114655 152 8630ft 83kts
09-Feb-19 11:40 35.086241 -119.038274 152 10943ft 78kts
09-Feb-19 11:41 34.952404 -118.954149 152 10933ft 105kts
09-Feb-19 11:42 34.797608 -118.856637 147 10954ft 107kts
09-Feb-19 11:43 34.760396 -118.656690 105 10965ft 107kts
09-Feb-19 11:44 34.630117 -118.580351 224 8547ft 124kts
09-Feb-19 11:45 34.472567 -118.588645 139 5954ft 126kts
09-Feb-19 11:45 34.447877 -118.570771 126 5527ft 126kts
09-Feb-19 11:46 34.428794 -118.547594 215 5258ft 109kts
09-Feb-19 11:48 34.412683 -118.572093 231 6103ft 68kts
09-Feb-19 11:49 34.401706 -118.588815 231 6657ft 60kts
09-Feb-19 11:49 34.392663 -118.602295 231 6952ft 77kts
09-Feb-19 11:50 34.375415 -118.628354 231 6931ft 109kts
09-Feb-19 11:51 34.347203 -118.670902 231 6928ft 111kts
09-Feb-19 11:52 34.309045 -118.728367 231 6928ft 111kts
09-Feb-19 11:53 34.276992 -118.776508 228 6927ft 112kts
09-Feb-19 11:54 34.256045 -118.761863 112 6393ft 101kts
09-Feb-19 11:55 34.245484 -118.731900 114 5786ft 95kts
09-Feb-19 11:56 34.234956 -118.702887 114 5185ft 94kts
09-Feb-19 11:57 34.224419 -118.674017 114 4384ft 93kts
09-Feb-19 11:58 34.214139 -118.645947 115 3699ft 78kts
09-Feb-19 11:59 34.205982 -118.624317 114 3727ft 79kts
09-Feb-19 12:00 34.200486 -118.595970 91 3734ft 88kts
09-Feb-19 12:01 34.200122 -118.565204 90 3720ft 96kts
09-Feb-19 12:02 34.199776 -118.533045 91 3502ft 90kts
09-Feb-19 12:03 34.199470 -118.504216 91 3024ft 84kts
09-Feb-19 12:04 34.199158 -118.475830 91 2559ft 84kts
09-Feb-19 12:05 34.198837 -118.447452 91 2097ft 84kts
09-Feb-19 12:06 34.198506 -118.419112 91 1639ft 83kts
09-Feb-19 12:07 34.198181 -118.391880 91 1203ft 80kts
09-Feb-19 12:08 34.197902 -118.365665 93 793ft 67kts
09-Feb-19 12:09 34.197780 -118.359460 90 780ft 0kts
09-Feb-19 12:10 34.197780 -118.359460 90 780ft 0kts
09-Feb-19 12:11 34.197780 -118.359460 90 780ft 0kts
09-Feb-19 12:12 34.197780 -118.359460 90 780ft 0kts
09-Feb-19 12:13 34.197780 -118.359460 90 780ft 0kts
09-Feb-19 12:14 34.197780 -118.359460 90 780ft 0kts
09-Feb-19 12:15 34.197780 -118.359460 90 780ft 0kts
09-Feb-19 12:16 34.197780 -118.359460 90 780ft 0kts
09-Feb-19 12:17 34.197780 -118.359460 90 780ft 0kts
09-Feb-19 12:18 34.197780 -118.359460 90 780ft 0kts
09-Feb-19 12:19 34.197780 -118.359460 90 780ft 0kts
09-Feb-19 12:20 34.197780 -118.359460 90 780ft 0kts
09-Feb-19 12:21 34.197780 -118.359460 90 780ft 0kts

Navigation Log

Ident Type
Flight plan parsing failed, navigation log unavailable